KFSI/FSI METAR and TAF weather

Enter ICAO airport designator
Station Type Date Time Source
KFSI METAR 2021/07/24 18:56 UTC NOAA

KFSI 241856Z AUTO 20006KT 10SM FEW170 FEW200 34/23 A2999 RMK AO2 SLP144 T03380231


Station Type Date Time Source
KFSI Decoded METAR 2021/07/24 18:56 UTC NOAA

Fort Sill, OK, United States (KFSI) 34-36N 098-24W 360M
Jul 24, 2021 - 02:56 PM EDT / 2021.07.24 1856 UTC
Wind: from the SSW (200 degrees) at 7 MPH (6 KT):0
Visibility: 10 mile(s):0
Sky conditions: mostly clear
Temperature: 92.8 F (33.8 C)
Heat index: 102.0 F (38.9 C):1
Dew Point: 73.6 F (23.1 C)
Relative Humidity: 53%
Pressure (altimeter): 29.99 in. Hg (1015 hPa)
ob: KFSI 241856Z AUTO 20006KT 10SM FEW170 FEW200 34/23 A2999 RMK AO2 SLP144 T03380231
cycle: 19

Station Type Date Time Source
KFSI TAF 2020/11/03 14:12 UTC NOAA

TAF KFSI 031400Z 0314/0420 19009KT 9999 SKC QNH3019INS TX19/0320Z TN04/0410Z

Example: see airport list